sensor_id;sensor_type;location;lat;lon;timestamp;P1;durP1;ratioP1;P2;durP2;ratioP2
18274;SDS011;19470;49.322;7.218;2023-03-14T00:02:10;9.05;;;8.15;;
18274;SDS011;19470;49.322;7.218;2023-03-14T00:04:36;8.98;;;4.35;;
18274;SDS011;19470;49.322;7.218;2023-03-14T00:07:04;5.68;;;4.30;;
18274;SDS011;19470;49.322;7.218;2023-03-14T00:09:31;4.65;;;4.05;;
18274;SDS011;19470;49.322;7.218;2023-03-14T00:11:57;8.25;;;2.90;;
18274;SDS011;19470;49.322;7.218;2023-03-14T00:14:24;11.75;;;10.77;;
18274;SDS011;19470;49.322;7.218;2023-03-14T00:16:50;10.93;;;3.15;;
18274;SDS011;19470;49.322;7.218;2023-03-14T00:19:17;9.10;;;3.28;;
18274;SDS011;19470;49.322;7.218;2023-03-14T00:21:43;4.20;;;2.40;;
18274;SDS011;19470;49.322;7.218;2023-03-14T00:24:11;5.63;;;3.33;;
18274;SDS011;19470;49.322;7.218;2023-03-14T00:26:38;4.20;;;3.13;;
18274;SDS011;19470;49.322;7.218;2023-03-14T00:29:04;7.30;;;5.20;;
18274;SDS011;19470;49.322;7.218;2023-03-14T00:31:30;4.63;;;2.72;;
18274;SDS011;19470;49.322;7.218;2023-03-14T00:33:57;3.90;;;2.75;;
18274;SDS011;19470;49.322;7.218;2023-03-14T00:36:24;5.88;;;2.40;;
18274;SDS011;19470;49.322;7.218;2023-03-14T00:38:50;8.82;;;3.22;;
18274;SDS011;19470;49.322;7.218;2023-03-14T00:41:19;8.88;;;4.88;;
18274;SDS011;19470;49.322;7.218;2023-03-14T00:43:48;4.40;;;2.70;;
18274;SDS011;19470;49.322;7.218;2023-03-14T00:46:14;47.67;;;44.33;;
18274;SDS011;19470;49.322;7.218;2023-03-14T00:48:41;4.03;;;3.20;;
18274;SDS011;19470;49.322;7.218;2023-03-14T00:51:08;7.10;;;6.00;;
18274;SDS011;19470;49.322;7.218;2023-03-14T00:53:36;7.57;;;5.00;;
18274;SDS011;19470;49.322;7.218;2023-03-14T00:56:04;68.68;;;64.28;;
18274;SDS011;19470;49.322;7.218;2023-03-14T00:58:34;7.45;;;3.28;;
18274;SDS011;19470;49.322;7.218;2023-03-14T01:01:04;8.98;;;4.40;;
18274;SDS011;19470;49.322;7.218;2023-03-14T01:03:32;5.32;;;4.00;;
18274;SDS011;19470;49.322;7.218;2023-03-14T01:06:06;41.63;;;39.25;;
18274;SDS011;19470;49.322;7.218;2023-03-14T01:08:33;6.15;;;3.80;;
18274;SDS011;19470;49.322;7.218;2023-03-14T01:10:59;5.80;;;4.70;;
18274;SDS011;19470;49.322;7.218;2023-03-14T01:13:31;7.47;;;4.32;;
18274;SDS011;19470;49.322;7.218;2023-03-14T01:16:02;6.68;;;4.88;;
18274;SDS011;19470;49.322;7.218;2023-03-14T01:18:30;76.97;;;71.88;;
18274;SDS011;19470;49.322;7.218;2023-03-14T01:20:57;10.40;;;4.95;;
18274;SDS011;19470;49.322;7.218;2023-03-14T01:23:23;6.78;;;6.20;;
18274;SDS011;19470;49.322;7.218;2023-03-14T01:25:50;12.82;;;11.73;;
18274;SDS011;19470;49.322;7.218;2023-03-14T01:28:17;11.18;;;9.38;;
18274;SDS011;19470;49.322;7.218;2023-03-14T01:30:43;9.43;;;7.93;;
18274;SDS011;19470;49.322;7.218;2023-03-14T01:33:11;19.90;;;17.92;;
18274;SDS011;19470;49.322;7.218;2023-03-14T01:35:39;6.75;;;3.25;;
18274;SDS011;19470;49.322;7.218;2023-03-14T01:38:05;7.90;;;3.05;;
18274;SDS011;19470;49.322;7.218;2023-03-14T01:40:32;11.38;;;3.28;;
18274;SDS011;19470;49.322;7.218;2023-03-14T01:43:05;9.25;;;4.13;;
18274;SDS011;19470;49.322;7.218;2023-03-14T01:48:42;13.75;;;5.78;;
18274;SDS011;19470;49.322;7.218;2023-03-14T01:51:14;7.90;;;5.32;;
18274;SDS011;19470;49.322;7.218;2023-03-14T01:53:44;9.98;;;6.38;;
18274;SDS011;19470;49.322;7.218;2023-03-14T01:56:12;8.13;;;7.32;;
18274;SDS011;19470;49.322;7.218;2023-03-14T01:58:41;16.90;;;15.82;;
18274;SDS011;19470;49.322;7.218;2023-03-14T02:01:11;20.10;;;18.70;;
18274;SDS011;19470;49.322;7.218;2023-03-14T02:03:39;9.02;;;8.10;;
18274;SDS011;19470;49.322;7.218;2023-03-14T02:06:12;9.38;;;3.92;;
18274;SDS011;19470;49.322;7.218;2023-03-14T02:08:43;26.17;;;24.17;;
18274;SDS011;19470;49.322;7.218;2023-03-14T02:11:13;8.75;;;5.38;;
18274;SDS011;19470;49.322;7.218;2023-03-14T02:13:40;7.65;;;4.97;;
18274;SDS011;19470;49.322;7.218;2023-03-14T02:16:06;11.95;;;9.02;;
18274;SDS011;19470;49.322;7.218;2023-03-14T02:18:34;7.70;;;4.57;;
18274;SDS011;19470;49.322;7.218;2023-03-14T02:21:03;8.00;;;7.30;;
18274;SDS011;19470;49.322;7.218;2023-03-14T02:23:37;10.40;;;9.45;;
18274;SDS011;19470;49.322;7.218;2023-03-14T02:26:10;8.27;;;7.32;;
18274;SDS011;19470;49.322;7.218;2023-03-14T02:28:41;8.23;;;5.50;;
18274;SDS011;19470;49.322;7.218;2023-03-14T02:31:08;6.15;;;3.40;;
18274;SDS011;19470;49.322;7.218;2023-03-14T02:33:34;6.90;;;5.13;;
18274;SDS011;19470;49.322;7.218;2023-03-14T02:36:03;10.00;;;9.10;;
18274;SDS011;19470;49.322;7.218;2023-03-14T02:38:33;10.95;;;4.95;;
18274;SDS011;19470;49.322;7.218;2023-03-14T02:41:04;9.73;;;8.93;;
18274;SDS011;19470;49.322;7.218;2023-03-14T02:43:31;10.32;;;9.52;;
18274;SDS011;19470;49.322;7.218;2023-03-14T02:45:59;7.82;;;5.82;;
18274;SDS011;19470;49.322;7.218;2023-03-14T02:48:28;6.13;;;4.70;;
18274;SDS011;19470;49.322;7.218;2023-03-14T02:50:59;6.57;;;4.50;;
18274;SDS011;19470;49.322;7.218;2023-03-14T02:53:28;91.80;;;86.13;;
18274;SDS011;19470;49.322;7.218;2023-03-14T02:55:56;7.85;;;7.13;;
18274;SDS011;19470;49.322;7.218;2023-03-14T02:58:23;8.63;;;6.65;;
18274;SDS011;19470;49.322;7.218;2023-03-14T03:00:50;9.07;;;5.80;;
18274;SDS011;19470;49.322;7.218;2023-03-14T03:03:18;16.40;;;15.10;;
18274;SDS011;19470;49.322;7.218;2023-03-14T03:05:47;35.83;;;32.83;;
18274;SDS011;19470;49.322;7.218;2023-03-14T03:08:15;30.55;;;28.40;;
18274;SDS011;19470;49.322;7.218;2023-03-14T03:10:41;24.70;;;22.77;;
18274;SDS011;19470;49.322;7.218;2023-03-14T03:13:08;31.27;;;28.70;;
18274;SDS011;19470;49.322;7.218;2023-03-14T03:15:34;145.90;;;120.35;;
18274;SDS011;19470;49.322;7.218;2023-03-14T03:18:01;46.95;;;43.53;;
18274;SDS011;19470;49.322;7.218;2023-03-14T03:20:29;8.38;;;4.53;;
18274;SDS011;19470;49.322;7.218;2023-03-14T03:22:55;11.50;;;9.88;;
18274;SDS011;19470;49.322;7.218;2023-03-14T03:25:22;8.90;;;7.28;;
18274;SDS011;19470;49.322;7.218;2023-03-14T03:27:48;7.70;;;4.43;;
18274;SDS011;19470;49.322;7.218;2023-03-14T03:30:15;10.40;;;7.47;;
18274;SDS011;19470;49.322;7.218;2023-03-14T03:32:42;7.35;;;3.42;;
18274;SDS011;19470;49.322;7.218;2023-03-14T03:35:09;17.52;;;16.20;;
18274;SDS011;19470;49.322;7.218;2023-03-14T03:37:37;162.02;;;150.60;;
18274;SDS011;19470;49.322;7.218;2023-03-14T03:40:04;68.43;;;63.42;;
18274;SDS011;19470;49.322;7.218;2023-03-14T03:42:32;13.10;;;11.70;;
18274;SDS011;19470;49.322;7.218;2023-03-14T03:44:59;7.90;;;4.22;;
18274;SDS011;19470;49.322;7.218;2023-03-14T03:47:26;11.00;;;5.38;;
18274;SDS011;19470;49.322;7.218;2023-03-14T03:49:53;23.20;;;21.42;;
18274;SDS011;19470;49.322;7.218;2023-03-14T03:52:19;63.30;;;59.58;;
18274;SDS011;19470;49.322;7.218;2023-03-14T03:54:47;10.45;;;7.25;;
18274;SDS011;19470;49.322;7.218;2023-03-14T03:57:14;38.55;;;35.78;;
18274;SDS011;19470;49.322;7.218;2023-03-14T03:59:40;9.77;;;4.25;;
18274;SDS011;19470;49.322;7.218;2023-03-14T04:02:07;7.72;;;3.65;;
18274;SDS011;19470;49.322;7.218;2023-03-14T04:04:34;77.10;;;72.25;;
18274;SDS011;19470;49.322;7.218;2023-03-14T04:07:00;15.30;;;13.48;;
18274;SDS011;19470;49.322;7.218;2023-03-14T04:09:27;6.35;;;4.38;;
18274;SDS011;19470;49.322;7.218;2023-03-14T04:11:54;8.20;;;3.40;;
18274;SDS011;19470;49.322;7.218;2023-03-14T04:14:21;7.13;;;3.22;;
18274;SDS011;19470;49.322;7.218;2023-03-14T04:16:48;73.07;;;68.60;;
18274;SDS011;19470;49.322;7.218;2023-03-14T04:19:14;254.20;;;237.52;;
18274;SDS011;19470;49.322;7.218;2023-03-14T04:21:41;137.82;;;126.38;;
18274;SDS011;19470;49.322;7.218;2023-03-14T04:24:09;53.53;;;49.80;;
18274;SDS011;19470;49.322;7.218;2023-03-14T04:26:36;6.00;;;3.13;;
18274;SDS011;19470;49.322;7.218;2023-03-14T04:29:04;4.88;;;2.38;;
18274;SDS011;19470;49.322;7.218;2023-03-14T04:31:30;12.40;;;6.07;;
18274;SDS011;19470;49.322;7.218;2023-03-14T04:33:57;282.80;;;179.95;;
18274;SDS011;19470;49.322;7.218;2023-03-14T04:36:23;4.75;;;3.53;;
18274;SDS011;19470;49.322;7.218;2023-03-14T04:38:50;12.43;;;11.35;;
18274;SDS011;19470;49.322;7.218;2023-03-14T04:41:16;26.48;;;24.42;;
18274;SDS011;19470;49.322;7.218;2023-03-14T04:43:43;138.00;;;128.50;;
18274;SDS011;19470;49.322;7.218;2023-03-14T04:46:10;9.95;;;7.50;;
18274;SDS011;19470;49.322;7.218;2023-03-14T04:48:37;10.20;;;3.40;;
18274;SDS011;19470;49.322;7.218;2023-03-14T04:51:04;23.75;;;21.90;;
18274;SDS011;19470;49.322;7.218;2023-03-14T04:53:31;7.53;;;2.92;;
18274;SDS011;19470;49.322;7.218;2023-03-14T04:55:59;6.75;;;5.00;;
18274;SDS011;19470;49.322;7.218;2023-03-14T04:58:25;9.23;;;8.32;;
18274;SDS011;19470;49.322;7.218;2023-03-14T05:00:52;33.40;;;31.08;;
18274;SDS011;19470;49.322;7.218;2023-03-14T05:03:19;13.48;;;12.38;;
18274;SDS011;19470;49.322;7.218;2023-03-14T05:05:46;18.33;;;16.95;;
18274;SDS011;19470;49.322;7.218;2023-03-14T05:08:13;8.32;;;7.50;;
18274;SDS011;19470;49.322;7.218;2023-03-14T05:10:39;6.03;;;3.67;;
18274;SDS011;19470;49.322;7.218;2023-03-14T05:13:06;60.17;;;56.28;;
18274;SDS011;19470;49.322;7.218;2023-03-14T05:15:32;47.72;;;44.88;;
18274;SDS011;19470;49.322;7.218;2023-03-14T05:17:59;6.72;;;3.85;;
18274;SDS011;19470;49.322;7.218;2023-03-14T05:20:27;4.30;;;2.35;;
18274;SDS011;19470;49.322;7.218;2023-03-14T05:22:53;8.45;;;7.53;;
18274;SDS011;19470;49.322;7.218;2023-03-14T05:25:20;7.18;;;4.57;;
18274;SDS011;19470;49.322;7.218;2023-03-14T05:27:46;4.47;;;3.38;;
18274;SDS011;19470;49.322;7.218;2023-03-14T05:30:13;41.28;;;39.03;;
18274;SDS011;19470;49.322;7.218;2023-03-14T05:32:40;5.72;;;3.13;;
18274;SDS011;19470;49.322;7.218;2023-03-14T05:35:07;66.90;;;62.60;;
18274;SDS011;19470;49.322;7.218;2023-03-14T05:37:35;3.75;;;2.72;;
18274;SDS011;19470;49.322;7.218;2023-03-14T05:40:02;8.35;;;7.38;;
18274;SDS011;19470;49.322;7.218;2023-03-14T05:42:29;23.50;;;21.73;;
18274;SDS011;19470;49.322;7.218;2023-03-14T05:44:56;6.63;;;3.88;;
18274;SDS011;19470;49.322;7.218;2023-03-14T05:47:22;11.27;;;9.80;;
18274;SDS011;19470;49.322;7.218;2023-03-14T05:49:49;327.85;;;296.65;;
18274;SDS011;19470;49.322;7.218;2023-03-14T05:52:15;5.03;;;3.38;;
18274;SDS011;19470;49.322;7.218;2023-03-14T05:54:43;21.27;;;19.70;;
18274;SDS011;19470;49.322;7.218;2023-03-14T05:57:10;21.42;;;18.27;;
18274;SDS011;19470;49.322;7.218;2023-03-14T05:59:36;8.70;;;6.93;;
18274;SDS011;19470;49.322;7.218;2023-03-14T06:02:03;36.25;;;33.72;;
18274;SDS011;19470;49.322;7.218;2023-03-14T06:04:29;9.30;;;8.43;;
18274;SDS011;19470;49.322;7.218;2023-03-14T06:06:56;22.17;;;18.90;;
18274;SDS011;19470;49.322;7.218;2023-03-14T06:09:22;10.43;;;5.75;;
18274;SDS011;19470;49.322;7.218;2023-03-14T06:11:50;57.63;;;52.83;;
18274;SDS011;19470;49.322;7.218;2023-03-14T06:14:17;5.55;;;4.55;;
18274;SDS011;19470;49.322;7.218;2023-03-14T06:16:44;9.77;;;2.92;;
18274;SDS011;19470;49.322;7.218;2023-03-14T06:19:13;7.63;;;3.53;;
18274;SDS011;19470;49.322;7.218;2023-03-14T06:21:39;177.98;;;165.55;;
18274;SDS011;19470;49.322;7.218;2023-03-14T06:24:06;43.00;;;39.90;;
18274;SDS011;19470;49.322;7.218;2023-03-14T06:26:33;11.43;;;5.97;;
18274;SDS011;19470;49.322;7.218;2023-03-14T06:29:00;37.05;;;32.92;;
18274;SDS011;19470;49.322;7.218;2023-03-14T06:31:28;88.10;;;82.45;;
18274;SDS011;19470;49.322;7.218;2023-03-14T06:33:55;46.55;;;43.67;;
18274;SDS011;19470;49.322;7.218;2023-03-14T06:36:21;7.50;;;3.70;;
18274;SDS011;19470;49.322;7.218;2023-03-14T06:38:48;104.15;;;96.57;;
18274;SDS011;19470;49.322;7.218;2023-03-14T06:41:14;41.90;;;39.13;;
18274;SDS011;19470;49.322;7.218;2023-03-14T06:43:41;58.25;;;54.45;;
18274;SDS011;19470;49.322;7.218;2023-03-14T06:46:09;79.57;;;75.03;;
18274;SDS011;19470;49.322;7.218;2023-03-14T06:48:35;136.30;;;125.63;;
18274;SDS011;19470;49.322;7.218;2023-03-14T06:51:02;12.07;;;11.10;;
18274;SDS011;19470;49.322;7.218;2023-03-14T06:53:29;50.45;;;46.42;;
18274;SDS011;19470;49.322;7.218;2023-03-14T06:55:55;43.28;;;40.40;;
18274;SDS011;19470;49.322;7.218;2023-03-14T06:58:22;123.57;;;116.22;;
18274;SDS011;19470;49.322;7.218;2023-03-14T07:00:48;192.13;;;158.05;;
18274;SDS011;19470;49.322;7.218;2023-03-14T07:03:16;9.93;;;9.13;;
18274;SDS011;19470;49.322;7.218;2023-03-14T07:05:42;5.90;;;5.40;;
18274;SDS011;19470;49.322;7.218;2023-03-14T07:08:09;13.20;;;12.30;;
18274;SDS011;19470;49.322;7.218;2023-03-14T07:10:36;43.40;;;41.00;;
18274;SDS011;19470;49.322;7.218;2023-03-14T07:13:03;5.03;;;4.50;;
18274;SDS011;19470;49.322;7.218;2023-03-14T07:15:29;12.63;;;11.73;;
18274;SDS011;19470;49.322;7.218;2023-03-14T07:17:56;93.90;;;86.82;;
18274;SDS011;19470;49.322;7.218;2023-03-14T07:20:24;5.82;;;5.43;;
18274;SDS011;19470;49.322;7.218;2023-03-14T07:22:50;292.70;;;244.35;;
18274;SDS011;19470;49.322;7.218;2023-03-14T07:25:17;120.20;;;111.88;;
18274;SDS011;19470;49.322;7.218;2023-03-14T07:27:44;109.72;;;103.72;;
18274;SDS011;19470;49.322;7.218;2023-03-14T07:30:11;4.45;;;4.00;;
18274;SDS011;19470;49.322;7.218;2023-03-14T07:32:38;15.40;;;14.45;;
18274;SDS011;19470;49.322;7.218;2023-03-14T07:35:05;23.40;;;21.95;;
18274;SDS011;19470;49.322;7.218;2023-03-14T07:37:34;198.10;;;185.02;;
18274;SDS011;19470;49.322;7.218;2023-03-14T07:40:01;129.23;;;122.35;;
18274;SDS011;19470;49.322;7.218;2023-03-14T07:42:30;42.75;;;40.22;;
18274;SDS011;19470;49.322;7.218;2023-03-14T07:44:56;36.00;;;34.13;;
18274;SDS011;19470;49.322;7.218;2023-03-14T07:47:23;86.63;;;81.70;;
18274;SDS011;19470;49.322;7.218;2023-03-14T07:49:49;146.50;;;136.00;;
18274;SDS011;19470;49.322;7.218;2023-03-14T07:52:16;11.15;;;10.38;;
18274;SDS011;19470;49.322;7.218;2023-03-14T07:54:44;366.42;;;271.02;;
18274;SDS011;19470;49.322;7.218;2023-03-14T07:57:10;36.35;;;34.25;;
18274;SDS011;19470;49.322;7.218;2023-03-14T07:59:37;302.58;;;262.95;;
18274;SDS011;19470;49.322;7.218;2023-03-14T08:02:03;49.80;;;46.67;;
18274;SDS011;19470;49.322;7.218;2023-03-14T08:04:35;53.83;;;50.83;;
18274;SDS011;19470;49.322;7.218;2023-03-14T08:07:02;7.82;;;7.30;;
18274;SDS011;19470;49.322;7.218;2023-03-14T08:09:28;122.13;;;115.78;;
18274;SDS011;19470;49.322;7.218;2023-03-14T08:11:56;28.23;;;26.58;;
18274;SDS011;19470;49.322;7.218;2023-03-14T08:14:23;233.60;;;212.07;;
18274;SDS011;19470;49.322;7.218;2023-03-14T08:16:49;245.20;;;226.57;;
18274;SDS011;19470;49.322;7.218;2023-03-14T08:19:16;5.50;;;5.15;;
18274;SDS011;19470;49.322;7.218;2023-03-14T08:21:43;57.53;;;54.30;;
18274;SDS011;19470;49.322;7.218;2023-03-14T08:24:09;8.52;;;7.85;;
18274;SDS011;19470;49.322;7.218;2023-03-14T08:26:36;7.93;;;7.50;;
18274;SDS011;19470;49.322;7.218;2023-03-14T08:29:04;28.00;;;26.60;;
18274;SDS011;19470;49.322;7.218;2023-03-14T08:31:30;76.10;;;71.90;;
18274;SDS011;19470;49.322;7.218;2023-03-14T08:33:57;256.17;;;235.00;;
18274;SDS011;19470;49.322;7.218;2023-03-14T08:36:24;282.23;;;257.08;;
18274;SDS011;19470;49.322;7.218;2023-03-14T08:38:51;6.88;;;6.18;;
18274;SDS011;19470;49.322;7.218;2023-03-14T08:41:17;68.53;;;63.78;;
18274;SDS011;19470;49.322;7.218;2023-03-14T08:43:44;199.30;;;185.38;;
18274;SDS011;19470;49.322;7.218;2023-03-14T08:46:12;8.77;;;8.23;;
18274;SDS011;19470;49.322;7.218;2023-03-14T08:48:38;6.03;;;5.57;;
18274;SDS011;19470;49.322;7.218;2023-03-14T08:51:05;81.72;;;77.28;;
18274;SDS011;19470;49.322;7.218;2023-03-14T08:53:32;125.18;;;117.35;;
18274;SDS011;19470;49.322;7.218;2023-03-14T08:55:59;19.73;;;18.45;;
18274;SDS011;19470;49.322;7.218;2023-03-14T08:58:25;188.13;;;173.23;;
18274;SDS011;19470;49.322;7.218;2023-03-14T09:00:52;110.05;;;104.18;;
18274;SDS011;19470;49.322;7.218;2023-03-14T09:03:19;97.15;;;91.88;;
18274;SDS011;19470;49.322;7.218;2023-03-14T09:05:48;12.13;;;11.35;;
18274;SDS011;19470;49.322;7.218;2023-03-14T09:08:14;78.68;;;73.82;;
18274;SDS011;19470;49.322;7.218;2023-03-14T09:10:41;15.85;;;14.88;;
18274;SDS011;19470;49.322;7.218;2023-03-14T09:13:07;66.93;;;62.42;;
18274;SDS011;19470;49.322;7.218;2023-03-14T09:15:34;23.25;;;21.95;;
18274;SDS011;19470;49.322;7.218;2023-03-14T09:18:00;4.75;;;4.45;;
18274;SDS011;19470;49.322;7.218;2023-03-14T09:20:28;11.88;;;11.15;;
18274;SDS011;19470;49.322;7.218;2023-03-14T09:22:55;69.85;;;64.50;;
18274;SDS011;19470;49.322;7.218;2023-03-14T09:25:21;4.05;;;3.85;;
18274;SDS011;19470;49.322;7.218;2023-03-14T09:27:47;42.90;;;39.40;;
18274;SDS011;19470;49.322;7.218;2023-03-14T09:30:14;13.00;;;12.30;;
18274;SDS011;19470;49.322;7.218;2023-03-14T09:32:40;4.63;;;3.95;;
18274;SDS011;19470;49.322;7.218;2023-03-14T09:35:07;6.68;;;6.18;;
18274;SDS011;19470;49.322;7.218;2023-03-14T09:37:36;6.40;;;6.00;;
18274;SDS011;19470;49.322;7.218;2023-03-14T09:40:03;20.40;;;19.40;;
18274;SDS011;19470;49.322;7.218;2023-03-14T09:42:35;4.70;;;4.43;;
18274;SDS011;19470;49.322;7.218;2023-03-14T09:45:04;61.92;;;57.80;;
18274;SDS011;19470;49.322;7.218;2023-03-14T09:47:36;2.97;;;2.78;;
18274;SDS011;19470;49.322;7.218;2023-03-14T09:50:03;41.38;;;39.17;;
18274;SDS011;19470;49.322;7.218;2023-03-14T09:52:32;15.88;;;15.07;;
18274;SDS011;19470;49.322;7.218;2023-03-14T09:55:05;24.10;;;22.73;;
18274;SDS011;19470;49.322;7.218;2023-03-14T09:57:33;13.07;;;12.35;;
18274;SDS011;19470;49.322;7.218;2023-03-14T10:00:02;66.82;;;60.85;;
18274;SDS011;19470;49.322;7.218;2023-03-14T10:02:38;139.57;;;130.25;;
18274;SDS011;19470;49.322;7.218;2023-03-14T10:05:07;81.90;;;77.68;;
18274;SDS011;19470;49.322;7.218;2023-03-14T10:07:40;55.33;;;52.40;;
18274;SDS011;19470;49.322;7.218;2023-03-14T10:10:10;950.92;;;664.13;;
18274;SDS011;19470;49.322;7.218;2023-03-14T10:12:39;66.50;;;62.60;;
18274;SDS011;19470;49.322;7.218;2023-03-14T10:15:08;694.72;;;419.48;;
18274;SDS011;19470;49.322;7.218;2023-03-14T10:17:40;445.38;;;401.45;;
18274;SDS011;19470;49.322;7.218;2023-03-14T10:20:25;32.75;;;30.45;;
18274;SDS011;19470;49.322;7.218;2023-03-14T10:22:57;118.28;;;109.78;;
18274;SDS011;19470;49.322;7.218;2023-03-14T10:25:27;106.13;;;98.05;;
18274;SDS011;19470;49.322;7.218;2023-03-14T10:27:55;334.80;;;301.98;;
18274;SDS011;19470;49.322;7.218;2023-03-14T10:30:30;4.28;;;3.92;;
18274;SDS011;19470;49.322;7.218;2023-03-14T10:33:07;289.50;;;261.25;;
18274;SDS011;19470;49.322;7.218;2023-03-14T10:35:35;304.13;;;271.50;;
18274;SDS011;19470;49.322;7.218;2023-03-14T10:38:03;201.82;;;183.60;;
18274;SDS011;19470;49.322;7.218;2023-03-14T10:40:32;107.32;;;101.30;;
18274;SDS011;19470;49.322;7.218;2023-03-14T10:43:00;121.45;;;111.90;;
18274;SDS011;19470;49.322;7.218;2023-03-14T10:45:33;63.38;;;59.80;;
18274;SDS011;19470;49.322;7.218;2023-03-14T10:48:20;32.83;;;30.75;;
18274;SDS011;19470;49.322;7.218;2023-03-14T10:50:49;471.33;;;366.73;;
18274;SDS011;19470;49.322;7.218;2023-03-14T10:53:20;26.55;;;24.83;;
18274;SDS011;19470;49.322;7.218;2023-03-14T10:55:48;5.72;;;5.35;;
18274;SDS011;19470;49.322;7.218;2023-03-14T10:58:18;42.70;;;40.22;;
18274;SDS011;19470;49.322;7.218;2023-03-14T11:00:47;126.25;;;118.03;;
18274;SDS011;19470;49.322;7.218;2023-03-14T11:03:31;99.63;;;94.15;;
18274;SDS011;19470;49.322;7.218;2023-03-14T11:06:03;325.08;;;255.48;;
18274;SDS011;19470;49.322;7.218;2023-03-14T11:08:37;92.78;;;84.15;;
18274;SDS011;19470;49.322;7.218;2023-03-14T11:11:15;78.10;;;72.35;;
18274;SDS011;19470;49.322;7.218;2023-03-14T11:13:49;169.65;;;151.45;;
18274;SDS011;19470;49.322;7.218;2023-03-14T11:16:22;1133.65;;;524.58;;
18274;SDS011;19470;49.322;7.218;2023-03-14T11:19:00;265.45;;;246.15;;
18274;SDS011;19470;49.322;7.218;2023-03-14T11:21:41;63.15;;;54.10;;
18274;SDS011;19470;49.322;7.218;2023-03-14T11:24:21;13.43;;;12.48;;
18274;SDS011;19470;49.322;7.218;2023-03-14T11:27:00;570.53;;;330.27;;
18274;SDS011;19470;49.322;7.218;2023-03-14T11:29:35;220.73;;;198.75;;
18274;SDS011;19470;49.322;7.218;2023-03-14T11:32:09;311.90;;;288.15;;
18274;SDS011;19470;49.322;7.218;2023-03-14T11:34:39;38.42;;;36.05;;
18274;SDS011;19470;49.322;7.218;2023-03-14T11:37:13;64.18;;;60.22;;
18274;SDS011;19470;49.322;7.218;2023-03-14T11:39:45;123.50;;;116.93;;
18274;SDS011;19470;49.322;7.218;2023-03-14T11:42:20;316.50;;;293.92;;
18274;SDS011;19470;49.322;7.218;2023-03-14T11:44:48;376.35;;;343.27;;
18274;SDS011;19470;49.322;7.218;2023-03-14T11:47:15;262.73;;;243.40;;
18274;SDS011;19470;49.322;7.218;2023-03-14T11:49:47;473.75;;;436.63;;
18274;SDS011;19470;49.322;7.218;2023-03-14T11:52:20;292.73;;;274.30;;
18274;SDS011;19470;49.322;7.218;2023-03-14T11:54:51;767.58;;;640.88;;
18274;SDS011;19470;49.322;7.218;2023-03-14T11:57:23;409.30;;;373.10;;
18274;SDS011;19470;49.322;7.218;2023-03-14T11:59:50;418.80;;;389.38;;
18274;SDS011;19470;49.322;7.218;2023-03-14T12:02:22;537.45;;;500.65;;
18274;SDS011;19470;49.322;7.218;2023-03-14T12:04:55;604.42;;;557.45;;
18274;SDS011;19470;49.322;7.218;2023-03-14T12:07:42;75.10;;;70.93;;
18274;SDS011;19470;49.322;7.218;2023-03-14T12:10:35;358.15;;;337.48;;
18274;SDS011;19470;49.322;7.218;2023-03-14T12:13:06;353.73;;;330.98;;
18274;SDS011;19470;49.322;7.218;2023-03-14T12:15:35;467.02;;;434.65;;
18274;SDS011;19470;49.322;7.218;2023-03-14T12:18:14;272.40;;;258.30;;
18274;SDS011;19470;49.322;7.218;2023-03-14T12:20:50;792.97;;;727.50;;
18274;SDS011;19470;49.322;7.218;2023-03-14T12:23:19;737.25;;;679.67;;
18274;SDS011;19470;49.322;7.218;2023-03-14T12:25:46;1296.63;;;891.25;;
18274;SDS011;19470;49.322;7.218;2023-03-14T12:28:18;393.42;;;365.23;;
18274;SDS011;19470;49.322;7.218;2023-03-14T12:30:45;342.55;;;322.45;;
18274;SDS011;19470;49.322;7.218;2023-03-14T12:36:00;575.90;;;530.60;;
18274;SDS011;19470;49.322;7.218;2023-03-14T12:38:52;332.42;;;309.80;;
18274;SDS011;19470;49.322;7.218;2023-03-14T12:41:27;693.65;;;640.17;;
18274;SDS011;19470;49.322;7.218;2023-03-14T12:50:14;431.08;;;403.70;;
18274;SDS011;19470;49.322;7.218;2023-03-14T12:52:48;268.10;;;253.55;;
18274;SDS011;19470;49.322;7.218;2023-03-14T12:55:33;372.50;;;347.92;;
18274;SDS011;19470;49.322;7.218;2023-03-14T12:58:07;620.13;;;573.47;;
18274;SDS011;19470;49.322;7.218;2023-03-14T13:00:41;754.50;;;686.95;;
18274;SDS011;19470;49.322;7.218;2023-03-14T13:03:17;746.10;;;678.90;;
18274;SDS011;19470;49.322;7.218;2023-03-14T13:05:55;401.88;;;373.85;;
18274;SDS011;19470;49.322;7.218;2023-03-14T13:08:32;706.92;;;626.78;;
18274;SDS011;19470;49.322;7.218;2023-03-14T13:11:01;701.35;;;614.10;;
18274;SDS011;19470;49.322;7.218;2023-03-14T13:13:28;338.58;;;315.50;;
18274;SDS011;19470;49.322;7.218;2023-03-14T13:15:55;541.75;;;501.10;;
18274;SDS011;19470;49.322;7.218;2023-03-14T13:18:27;280.92;;;262.02;;
18274;SDS011;19470;49.322;7.218;2023-03-14T13:21:01;297.95;;;279.10;;
18274;SDS011;19470;49.322;7.218;2023-03-14T13:23:32;360.63;;;335.60;;
18274;SDS011;19470;49.322;7.218;2023-03-14T13:26:00;346.40;;;323.85;;
18274;SDS011;19470;49.322;7.218;2023-03-14T13:28:29;699.55;;;624.63;;
18274;SDS011;19470;49.322;7.218;2023-03-14T13:30:57;605.20;;;562.55;;
18274;SDS011;19470;49.322;7.218;2023-03-14T13:33:25;591.60;;;535.47;;
18274;SDS011;19470;49.322;7.218;2023-03-14T13:35:54;360.40;;;337.20;;
18274;SDS011;19470;49.322;7.218;2023-03-14T13:38:24;549.80;;;507.70;;
18274;SDS011;19470;49.322;7.218;2023-03-14T13:40:53;511.33;;;472.08;;
18274;SDS011;19470;49.322;7.218;2023-03-14T13:43:25;683.65;;;618.17;;
18274;SDS011;19470;49.322;7.218;2023-03-14T13:45:56;369.25;;;337.77;;
18274;SDS011;19470;49.322;7.218;2023-03-14T13:48:30;514.65;;;468.25;;
18274;SDS011;19470;49.322;7.218;2023-03-14T13:50:59;161.82;;;153.25;;
18274;SDS011;19470;49.322;7.218;2023-03-14T13:53:29;231.50;;;217.52;;
18274;SDS011;19470;49.322;7.218;2023-03-14T13:55:56;264.08;;;246.55;;
18274;SDS011;19470;49.322;7.218;2023-03-14T13:58:27;538.28;;;492.30;;
18274;SDS011;19470;49.322;7.218;2023-03-14T14:01:04;374.77;;;345.38;;
18274;SDS011;19470;49.322;7.218;2023-03-14T14:03:37;205.70;;;195.00;;
18274;SDS011;19470;49.322;7.218;2023-03-14T14:06:06;955.90;;;803.65;;
18274;SDS011;19470;49.322;7.218;2023-03-14T14:08:41;499.95;;;461.98;;
18274;SDS011;19470;49.322;7.218;2023-03-14T14:11:08;779.30;;;709.40;;
18274;SDS011;19470;49.322;7.218;2023-03-14T14:13:45;229.52;;;217.40;;
18274;SDS011;19470;49.322;7.218;2023-03-14T14:16:12;752.63;;;687.38;;
18274;SDS011;19470;49.322;7.218;2023-03-14T14:18:42;155.68;;;147.77;;
18274;SDS011;19470;49.322;7.218;2023-03-14T14:21:08;308.08;;;290.33;;
18274;SDS011;19470;49.322;7.218;2023-03-14T14:23:37;368.73;;;342.80;;
18274;SDS011;19470;49.322;7.218;2023-03-14T14:26:05;210.90;;;199.70;;
18274;SDS011;19470;49.322;7.218;2023-03-14T14:28:33;484.58;;;452.88;;
18274;SDS011;19470;49.322;7.218;2023-03-14T14:31:01;461.13;;;428.55;;
18274;SDS011;19470;49.322;7.218;2023-03-14T14:33:37;189.50;;;179.95;;
18274;SDS011;19470;49.322;7.218;2023-03-14T14:36:11;397.85;;;368.92;;
18274;SDS011;19470;49.322;7.218;2023-03-14T14:38:42;386.73;;;364.00;;
18274;SDS011;19470;49.322;7.218;2023-03-14T14:41:11;245.18;;;232.85;;
18274;SDS011;19470;49.322;7.218;2023-03-14T14:43:38;455.83;;;427.67;;